Placita, New Mexico
Current Conditions -  °F | °C
As of 12:35 PM on Thursday 18 Dec 2014 (Local Time) from KSKX Reporting Station
Scattered Clouds Scattered Clouds  
Wind Chill: -3°   Ceiling: Unl
Heat Index:   Visibility: 10mi
Dew Point: -3°   Wind: 6mph
Humidity: 80%   Direction: 350°N
Pressure: 30.1"   Gusts: NA
Location:  36.1892°N, 105.688°W
Report Text: KSKX 181935Z AUTO 35005KT 10SM SCT010 00/M03 A3010 RMK AO1 P0001
Loading
Personal Weather Stations






























Interactive Weather Map New forecast layout! Learn more

10-Day Weather Forecast

Advertisements
Track Severe Weather on mobile